sensor_id;sensor_type;location;lat;lon;timestamp;P1;durP1;ratioP1;P2;durP2;ratioP2
16600;SDS011;34891;48.164;11.572;2024-03-07T00:01:07;8.85;;;3.78;;
16600;SDS011;34891;48.164;11.572;2024-03-07T00:06:10;14.45;;;5.75;;
16600;SDS011;34891;48.164;11.572;2024-03-07T00:11:13;19.48;;;7.65;;
16600;SDS011;34891;48.164;11.572;2024-03-07T00:16:17;8.10;;;3.83;;
16600;SDS011;34891;48.164;11.572;2024-03-07T00:21:19;15.70;;;5.65;;
16600;SDS011;34891;48.164;11.572;2024-03-07T00:26:22;14.45;;;5.90;;
16600;SDS011;34891;48.164;11.572;2024-03-07T00:31:26;21.27;;;7.80;;
16600;SDS011;34891;48.164;11.572;2024-03-07T00:36:31;16.67;;;6.95;;
16600;SDS011;34891;48.164;11.572;2024-03-07T00:41:35;24.40;;;8.70;;
16600;SDS011;34891;48.164;11.572;2024-03-07T00:46:39;20.75;;;8.40;;
16600;SDS011;34891;48.164;11.572;2024-03-07T00:56:45;24.33;;;9.20;;
16600;SDS011;34891;48.164;11.572;2024-03-07T01:01:52;17.92;;;7.80;;
16600;SDS011;34891;48.164;11.572;2024-03-07T01:06:55;24.40;;;8.25;;
16600;SDS011;34891;48.164;11.572;2024-03-07T01:11:57;8.55;;;3.90;;
16600;SDS011;34891;48.164;11.572;2024-03-07T01:22:05;23.08;;;9.20;;
16600;SDS011;34891;48.164;11.572;2024-03-07T01:27:09;25.92;;;9.20;;
16600;SDS011;34891;48.164;11.572;2024-03-07T01:32:12;27.02;;;9.60;;
16600;SDS011;34891;48.164;11.572;2024-03-07T01:37:16;16.33;;;4.43;;
16600;SDS011;34891;48.164;11.572;2024-03-07T01:42:18;29.40;;;10.35;;
16600;SDS011;34891;48.164;11.572;2024-03-07T01:47:21;28.08;;;10.30;;
16600;SDS011;34891;48.164;11.572;2024-03-07T01:52:25;23.80;;;9.88;;
16600;SDS011;34891;48.164;11.572;2024-03-07T01:57:28;27.73;;;9.00;;
16600;SDS011;34891;48.164;11.572;2024-03-07T02:02:31;28.17;;;10.20;;
16600;SDS011;34891;48.164;11.572;2024-03-07T02:07:35;22.30;;;7.85;;
16600;SDS011;34891;48.164;11.572;2024-03-07T02:12:40;28.55;;;11.02;;
16600;SDS011;34891;48.164;11.572;2024-03-07T02:17:43;26.25;;;10.57;;
16600;SDS011;34891;48.164;11.572;2024-03-07T02:22:48;31.33;;;11.07;;
16600;SDS011;34891;48.164;11.572;2024-03-07T02:27:52;32.13;;;11.35;;
16600;SDS011;34891;48.164;11.572;2024-03-07T02:32:55;29.33;;;10.63;;
16600;SDS011;34891;48.164;11.572;2024-03-07T02:37:59;31.67;;;11.20;;
16600;SDS011;34891;48.164;11.572;2024-03-07T02:43:03;44.72;;;16.48;;
16600;SDS011;34891;48.164;11.572;2024-03-07T02:48:07;33.15;;;13.18;;
16600;SDS011;34891;48.164;11.572;2024-03-07T02:53:13;40.10;;;14.57;;
16600;SDS011;34891;48.164;11.572;2024-03-07T02:58:15;33.22;;;12.45;;
16600;SDS011;34891;48.164;11.572;2024-03-07T03:03:18;35.03;;;13.95;;
16600;SDS011;34891;48.164;11.572;2024-03-07T03:08:22;38.08;;;12.93;;
16600;SDS011;34891;48.164;11.572;2024-03-07T03:18:29;38.23;;;15.27;;
16600;SDS011;34891;48.164;11.572;2024-03-07T03:23:33;47.37;;;16.57;;
16600;SDS011;34891;48.164;11.572;2024-03-07T03:28:37;40.78;;;15.15;;
16600;SDS011;34891;48.164;11.572;2024-03-07T03:33:42;41.10;;;14.23;;
16600;SDS011;34891;48.164;11.572;2024-03-07T03:38:46;43.42;;;14.93;;
16600;SDS011;34891;48.164;11.572;2024-03-07T03:43:49;43.83;;;15.38;;
16600;SDS011;34891;48.164;11.572;2024-03-07T03:48:52;43.70;;;15.38;;
16600;SDS011;34891;48.164;11.572;2024-03-07T03:53:56;40.67;;;14.55;;
16600;SDS011;34891;48.164;11.572;2024-03-07T04:04:01;37.65;;;14.23;;
16600;SDS011;34891;48.164;11.572;2024-03-07T04:09:05;42.03;;;16.20;;
16600;SDS011;34891;48.164;11.572;2024-03-07T04:19:10;43.90;;;15.82;;
16600;SDS011;34891;48.164;11.572;2024-03-07T04:24:15;49.53;;;16.27;;
16600;SDS011;34891;48.164;11.572;2024-03-07T04:29:17;43.50;;;15.70;;
16600;SDS011;34891;48.164;11.572;2024-03-07T04:34:20;50.38;;;17.60;;
16600;SDS011;34891;48.164;11.572;2024-03-07T04:39:25;47.75;;;15.38;;
16600;SDS011;34891;48.164;11.572;2024-03-07T04:44:32;42.33;;;15.90;;
16600;SDS011;34891;48.164;11.572;2024-03-07T04:49:37;43.17;;;15.32;;
16600;SDS011;34891;48.164;11.572;2024-03-07T04:54:41;41.90;;;15.90;;
16600;SDS011;34891;48.164;11.572;2024-03-07T04:59:43;50.85;;;17.58;;
16600;SDS011;34891;48.164;11.572;2024-03-07T05:04:46;46.55;;;17.65;;
16600;SDS011;34891;48.164;11.572;2024-03-07T05:09:53;43.30;;;16.38;;
16600;SDS011;34891;48.164;11.572;2024-03-07T05:14:56;46.90;;;17.33;;
16600;SDS011;34891;48.164;11.572;2024-03-07T05:19:58;50.03;;;19.63;;
16600;SDS011;34891;48.164;11.572;2024-03-07T05:25:02;43.30;;;16.30;;
16600;SDS011;34891;48.164;11.572;2024-03-07T05:30:07;49.85;;;17.98;;
16600;SDS011;34891;48.164;11.572;2024-03-07T05:35:13;45.38;;;16.77;;
16600;SDS011;34891;48.164;11.572;2024-03-07T05:40:19;48.35;;;17.17;;
16600;SDS011;34891;48.164;11.572;2024-03-07T05:45:22;49.80;;;17.23;;
16600;SDS011;34891;48.164;11.572;2024-03-07T05:50:24;53.33;;;17.73;;
16600;SDS011;34891;48.164;11.572;2024-03-07T05:55:29;47.97;;;17.38;;
16600;SDS011;34891;48.164;11.572;2024-03-07T06:00:33;53.08;;;18.17;;
16600;SDS011;34891;48.164;11.572;2024-03-07T06:05:36;52.10;;;19.15;;
16600;SDS011;34891;48.164;11.572;2024-03-07T06:10:40;48.20;;;17.20;;
16600;SDS011;34891;48.164;11.572;2024-03-07T06:15:43;54.42;;;17.58;;
16600;SDS011;34891;48.164;11.572;2024-03-07T06:20:46;54.28;;;17.90;;
16600;SDS011;34891;48.164;11.572;2024-03-07T06:25:51;53.05;;;19.10;;
16600;SDS011;34891;48.164;11.572;2024-03-07T06:30:55;48.17;;;17.88;;
16600;SDS011;34891;48.164;11.572;2024-03-07T06:35:58;49.10;;;18.92;;
16600;SDS011;34891;48.164;11.572;2024-03-07T06:41:03;56.58;;;19.73;;
16600;SDS011;34891;48.164;11.572;2024-03-07T06:46:07;51.10;;;17.85;;
16600;SDS011;34891;48.164;11.572;2024-03-07T06:51:10;49.10;;;18.33;;
16600;SDS011;34891;48.164;11.572;2024-03-07T06:56:15;50.07;;;17.87;;
16600;SDS011;34891;48.164;11.572;2024-03-07T07:01:18;45.13;;;16.83;;
16600;SDS011;34891;48.164;11.572;2024-03-07T07:06:22;50.65;;;18.23;;
16600;SDS011;34891;48.164;11.572;2024-03-07T07:11:26;48.45;;;16.90;;
16600;SDS011;34891;48.164;11.572;2024-03-07T07:16:35;42.78;;;15.73;;
16600;SDS011;34891;48.164;11.572;2024-03-07T07:21:38;51.47;;;18.00;;
16600;SDS011;34891;48.164;11.572;2024-03-07T07:26:42;48.97;;;17.83;;
16600;SDS011;34891;48.164;11.572;2024-03-07T07:31:46;46.88;;;16.10;;
16600;SDS011;34891;48.164;11.572;2024-03-07T07:36:49;54.38;;;18.00;;
16600;SDS011;34891;48.164;11.572;2024-03-07T07:41:53;50.60;;;17.65;;
16600;SDS011;34891;48.164;11.572;2024-03-07T07:46:57;51.45;;;17.85;;
16600;SDS011;34891;48.164;11.572;2024-03-07T07:51:59;51.63;;;17.83;;
16600;SDS011;34891;48.164;11.572;2024-03-07T07:57:04;47.85;;;17.50;;
16600;SDS011;34891;48.164;11.572;2024-03-07T08:07:09;49.15;;;16.52;;
16600;SDS011;34891;48.164;11.572;2024-03-07T08:12:13;40.10;;;14.07;;
16600;SDS011;34891;48.164;11.572;2024-03-07T08:17:16;43.40;;;15.93;;
16600;SDS011;34891;48.164;11.572;2024-03-07T08:22:18;48.55;;;16.40;;
16600;SDS011;34891;48.164;11.572;2024-03-07T08:27:23;47.38;;;17.95;;
16600;SDS011;34891;48.164;11.572;2024-03-07T08:37:28;43.22;;;16.92;;
16600;SDS011;34891;48.164;11.572;2024-03-07T08:42:33;49.65;;;17.83;;
16600;SDS011;34891;48.164;11.572;2024-03-07T08:47:36;38.92;;;14.60;;
16600;SDS011;34891;48.164;11.572;2024-03-07T08:52:39;41.55;;;15.05;;
16600;SDS011;34891;48.164;11.572;2024-03-07T08:57:44;46.37;;;15.73;;
16600;SDS011;34891;48.164;11.572;2024-03-07T09:02:48;39.65;;;12.82;;
16600;SDS011;34891;48.164;11.572;2024-03-07T09:07:52;43.08;;;16.50;;
16600;SDS011;34891;48.164;11.572;2024-03-07T09:12:57;37.92;;;14.10;;
16600;SDS011;34891;48.164;11.572;2024-03-07T09:18:00;36.00;;;14.52;;
16600;SDS011;34891;48.164;11.572;2024-03-07T09:23:08;32.88;;;14.45;;
16600;SDS011;34891;48.164;11.572;2024-03-07T09:28:12;36.47;;;13.65;;
16600;SDS011;34891;48.164;11.572;2024-03-07T09:33:16;37.88;;;13.57;;
16600;SDS011;34891;48.164;11.572;2024-03-07T09:38:21;34.92;;;13.02;;
16600;SDS011;34891;48.164;11.572;2024-03-07T09:43:29;34.40;;;11.02;;
16600;SDS011;34891;48.164;11.572;2024-03-07T09:48:33;37.58;;;12.75;;
16600;SDS011;34891;48.164;11.572;2024-03-07T09:53:36;33.07;;;12.80;;
16600;SDS011;34891;48.164;11.572;2024-03-07T09:58:41;35.38;;;12.15;;
16600;SDS011;34891;48.164;11.572;2024-03-07T10:03:46;34.95;;;13.50;;
16600;SDS011;34891;48.164;11.572;2024-03-07T10:08:50;33.45;;;12.63;;
16600;SDS011;34891;48.164;11.572;2024-03-07T10:13:55;25.23;;;9.48;;
16600;SDS011;34891;48.164;11.572;2024-03-07T10:18:58;31.80;;;12.07;;
16600;SDS011;34891;48.164;11.572;2024-03-07T10:24:05;30.77;;;11.52;;
16600;SDS011;34891;48.164;11.572;2024-03-07T10:29:10;32.72;;;13.90;;
16600;SDS011;34891;48.164;11.572;2024-03-07T10:39:17;32.45;;;12.57;;
16600;SDS011;34891;48.164;11.572;2024-03-07T10:44:25;36.63;;;14.07;;
16600;SDS011;34891;48.164;11.572;2024-03-07T10:49:31;31.17;;;12.00;;
16600;SDS011;34891;48.164;11.572;2024-03-07T10:54:36;23.58;;;9.30;;
16600;SDS011;34891;48.164;11.572;2024-03-07T10:59:55;14.20;;;6.65;;
16600;SDS011;34891;48.164;11.572;2024-03-07T11:05:00;19.73;;;8.40;;
16600;SDS011;34891;48.164;11.572;2024-03-07T11:10:03;31.02;;;10.60;;
16600;SDS011;34891;48.164;11.572;2024-03-07T11:15:14;31.98;;;14.10;;
16600;SDS011;34891;48.164;11.572;2024-03-07T11:20:21;28.70;;;11.55;;
16600;SDS011;34891;48.164;11.572;2024-03-07T11:25:26;27.20;;;11.60;;
16600;SDS011;34891;48.164;11.572;2024-03-07T11:30:31;19.08;;;7.85;;
16600;SDS011;34891;48.164;11.572;2024-03-07T11:40:43;25.90;;;10.60;;
16600;SDS011;34891;48.164;11.572;2024-03-07T11:45:52;25.23;;;10.27;;
16600;SDS011;34891;48.164;11.572;2024-03-07T11:50:55;31.08;;;12.50;;
16600;SDS011;34891;48.164;11.572;2024-03-07T11:55:57;31.02;;;11.95;;
16600;SDS011;34891;48.164;11.572;2024-03-07T12:01:04;30.63;;;10.70;;
16600;SDS011;34891;48.164;11.572;2024-03-07T12:06:12;26.88;;;10.60;;
16600;SDS011;34891;48.164;11.572;2024-03-07T12:11:18;30.60;;;12.13;;
16600;SDS011;34891;48.164;11.572;2024-03-07T12:16:24;31.52;;;10.45;;
16600;SDS011;34891;48.164;11.572;2024-03-07T12:21:31;30.58;;;11.32;;
16600;SDS011;34891;48.164;11.572;2024-03-07T12:26:34;23.33;;;8.80;;
16600;SDS011;34891;48.164;11.572;2024-03-07T12:31:41;29.02;;;10.50;;
16600;SDS011;34891;48.164;11.572;2024-03-07T12:36:47;30.30;;;10.85;;
16600;SDS011;34891;48.164;11.572;2024-03-07T12:41:51;28.85;;;9.82;;
16600;SDS011;34891;48.164;11.572;2024-03-07T12:46:58;28.25;;;10.40;;
16600;SDS011;34891;48.164;11.572;2024-03-07T12:57:03;25.17;;;8.40;;
16600;SDS011;34891;48.164;11.572;2024-03-07T13:07:12;25.92;;;10.48;;
16600;SDS011;34891;48.164;11.572;2024-03-07T13:12:17;30.67;;;10.40;;
16600;SDS011;34891;48.164;11.572;2024-03-07T13:17:19;31.95;;;11.13;;
16600;SDS011;34891;48.164;11.572;2024-03-07T13:22:24;30.65;;;10.60;;
16600;SDS011;34891;48.164;11.572;2024-03-07T13:27:26;27.33;;;10.65;;
16600;SDS011;34891;48.164;11.572;2024-03-07T13:32:30;23.63;;;9.18;;
16600;SDS011;34891;48.164;11.572;2024-03-07T13:37:34;35.40;;;9.95;;
16600;SDS011;34891;48.164;11.572;2024-03-07T13:42:37;28.10;;;9.57;;
16600;SDS011;34891;48.164;11.572;2024-03-07T13:47:40;28.70;;;9.93;;
16600;SDS011;34891;48.164;11.572;2024-03-07T13:52:47;24.90;;;9.10;;
16600;SDS011;34891;48.164;11.572;2024-03-07T13:58:04;26.60;;;8.45;;
16600;SDS011;34891;48.164;11.572;2024-03-07T14:03:17;24.90;;;8.75;;
16600;SDS011;34891;48.164;11.572;2024-03-07T14:08:38;18.45;;;7.65;;
16600;SDS011;34891;48.164;11.572;2024-03-07T14:13:48;31.33;;;11.23;;
16600;SDS011;34891;48.164;11.572;2024-03-07T14:19:12;28.58;;;10.25;;
16600;SDS011;34891;48.164;11.572;2024-03-07T14:29:47;27.63;;;9.88;;
16600;SDS011;34891;48.164;11.572;2024-03-07T14:34:55;19.90;;;7.90;;
16600;SDS011;34891;48.164;11.572;2024-03-07T14:40:05;31.55;;;11.00;;
16600;SDS011;34891;48.164;11.572;2024-03-07T14:45:14;35.92;;;10.93;;
16600;SDS011;34891;48.164;11.572;2024-03-07T14:50:21;23.42;;;9.63;;
16600;SDS011;34891;48.164;11.572;2024-03-07T14:55:24;31.67;;;10.63;;
16600;SDS011;34891;48.164;11.572;2024-03-07T15:00:29;28.23;;;10.10;;
16600;SDS011;34891;48.164;11.572;2024-03-07T15:05:43;23.35;;;7.40;;
16600;SDS011;34891;48.164;11.572;2024-03-07T15:10:48;20.30;;;8.23;;
16600;SDS011;34891;48.164;11.572;2024-03-07T15:15:55;24.95;;;8.18;;
16600;SDS011;34891;48.164;11.572;2024-03-07T15:21:02;22.48;;;7.88;;
16600;SDS011;34891;48.164;11.572;2024-03-07T15:26:06;18.63;;;6.75;;
16600;SDS011;34891;48.164;11.572;2024-03-07T15:31:11;16.15;;;6.43;;
16600;SDS011;34891;48.164;11.572;2024-03-07T15:36:20;11.98;;;4.80;;
16600;SDS011;34891;48.164;11.572;2024-03-07T15:41:24;17.00;;;5.05;;
16600;SDS011;34891;48.164;11.572;2024-03-07T15:46:28;15.25;;;6.22;;
16600;SDS011;34891;48.164;11.572;2024-03-07T15:56:35;18.98;;;5.72;;
16600;SDS011;34891;48.164;11.572;2024-03-07T16:01:40;6.70;;;3.65;;
16600;SDS011;34891;48.164;11.572;2024-03-07T16:06:43;12.77;;;4.57;;
16600;SDS011;34891;48.164;11.572;2024-03-07T16:11:46;17.97;;;7.00;;
16600;SDS011;34891;48.164;11.572;2024-03-07T16:16:51;15.93;;;5.37;;
16600;SDS011;34891;48.164;11.572;2024-03-07T16:21:55;9.43;;;3.80;;
16600;SDS011;34891;48.164;11.572;2024-03-07T16:26:58;7.88;;;3.10;;
16600;SDS011;34891;48.164;11.572;2024-03-07T16:32:02;10.90;;;4.05;;
16600;SDS011;34891;48.164;11.572;2024-03-07T16:37:07;11.75;;;3.35;;
16600;SDS011;34891;48.164;11.572;2024-03-07T16:42:12;12.85;;;4.25;;
16600;SDS011;34891;48.164;11.572;2024-03-07T16:47:17;10.70;;;4.50;;
16600;SDS011;34891;48.164;11.572;2024-03-07T16:52:25;12.60;;;4.45;;
16600;SDS011;34891;48.164;11.572;2024-03-07T16:57:30;11.95;;;4.22;;
16600;SDS011;34891;48.164;11.572;2024-03-07T17:02:34;13.70;;;4.77;;
16600;SDS011;34891;48.164;11.572;2024-03-07T17:07:37;15.25;;;5.00;;
16600;SDS011;34891;48.164;11.572;2024-03-07T17:12:42;8.48;;;4.00;;
16600;SDS011;34891;48.164;11.572;2024-03-07T17:17:50;12.48;;;4.68;;
16600;SDS011;34891;48.164;11.572;2024-03-07T17:22:53;12.90;;;5.10;;
16600;SDS011;34891;48.164;11.572;2024-03-07T17:27:56;13.40;;;5.27;;
16600;SDS011;34891;48.164;11.572;2024-03-07T17:33:03;12.73;;;5.47;;
16600;SDS011;34891;48.164;11.572;2024-03-07T17:38:09;14.98;;;5.47;;
16600;SDS011;34891;48.164;11.572;2024-03-07T17:43:13;13.70;;;5.00;;
16600;SDS011;34891;48.164;11.572;2024-03-07T17:48:17;15.55;;;5.00;;
16600;SDS011;34891;48.164;11.572;2024-03-07T17:53:21;16.13;;;6.32;;
16600;SDS011;34891;48.164;11.572;2024-03-07T17:58:27;17.23;;;5.97;;
16600;SDS011;34891;48.164;11.572;2024-03-07T18:03:33;16.33;;;4.93;;
16600;SDS011;34891;48.164;11.572;2024-03-07T18:08:39;18.08;;;6.53;;
16600;SDS011;34891;48.164;11.572;2024-03-07T18:13:52;15.93;;;6.25;;
16600;SDS011;34891;48.164;11.572;2024-03-07T18:18:56;20.23;;;6.75;;
16600;SDS011;34891;48.164;11.572;2024-03-07T18:23:59;19.20;;;7.43;;
16600;SDS011;34891;48.164;11.572;2024-03-07T18:29:01;16.20;;;6.07;;
16600;SDS011;34891;48.164;11.572;2024-03-07T18:34:06;14.55;;;5.90;;
16600;SDS011;34891;48.164;11.572;2024-03-07T18:39:09;17.95;;;6.88;;
16600;SDS011;34891;48.164;11.572;2024-03-07T18:44:25;17.42;;;6.35;;
16600;SDS011;34891;48.164;11.572;2024-03-07T18:49:35;9.93;;;4.47;;
16600;SDS011;34891;48.164;11.572;2024-03-07T18:54:38;15.30;;;6.00;;
16600;SDS011;34891;48.164;11.572;2024-03-07T18:59:44;15.70;;;5.95;;
16600;SDS011;34891;48.164;11.572;2024-03-07T19:04:48;20.13;;;7.20;;
16600;SDS011;34891;48.164;11.572;2024-03-07T19:14:55;10.15;;;4.13;;
16600;SDS011;34891;48.164;11.572;2024-03-07T19:20:00;15.30;;;6.88;;
16600;SDS011;34891;48.164;11.572;2024-03-07T19:25:13;11.38;;;4.43;;
16600;SDS011;34891;48.164;11.572;2024-03-07T19:30:19;12.52;;;4.82;;
16600;SDS011;34891;48.164;11.572;2024-03-07T19:35:28;19.85;;;6.50;;
16600;SDS011;34891;48.164;11.572;2024-03-07T19:40:32;16.67;;;5.88;;
16600;SDS011;34891;48.164;11.572;2024-03-07T19:45:37;16.92;;;5.28;;
16600;SDS011;34891;48.164;11.572;2024-03-07T19:50:41;16.58;;;5.93;;
16600;SDS011;34891;48.164;11.572;2024-03-07T19:55:44;24.13;;;7.50;;
16600;SDS011;34891;48.164;11.572;2024-03-07T20:00:48;9.90;;;3.97;;
16600;SDS011;34891;48.164;11.572;2024-03-07T20:05:52;11.27;;;4.45;;
16600;SDS011;34891;48.164;11.572;2024-03-07T20:10:56;19.98;;;6.60;;
16600;SDS011;34891;48.164;11.572;2024-03-07T20:16:00;19.45;;;6.97;;
16600;SDS011;34891;48.164;11.572;2024-03-07T20:21:04;17.83;;;7.05;;
16600;SDS011;34891;48.164;11.572;2024-03-07T20:26:07;25.08;;;8.13;;
16600;SDS011;34891;48.164;11.572;2024-03-07T20:31:10;16.43;;;6.00;;
16600;SDS011;34891;48.164;11.572;2024-03-07T20:41:19;15.45;;;6.35;;
16600;SDS011;34891;48.164;11.572;2024-03-07T20:46:22;25.13;;;7.55;;
16600;SDS011;34891;48.164;11.572;2024-03-07T20:51:25;13.73;;;4.90;;
16600;SDS011;34891;48.164;11.572;2024-03-07T20:56:29;20.30;;;7.30;;
16600;SDS011;34891;48.164;11.572;2024-03-07T21:01:32;20.75;;;7.03;;
16600;SDS011;34891;48.164;11.572;2024-03-07T21:11:41;16.15;;;5.72;;
16600;SDS011;34891;48.164;11.572;2024-03-07T21:21:47;18.90;;;7.13;;
16600;SDS011;34891;48.164;11.572;2024-03-07T21:31:56;15.68;;;6.07;;
16600;SDS011;34891;48.164;11.572;2024-03-07T21:42:02;19.90;;;7.27;;
16600;SDS011;34891;48.164;11.572;2024-03-07T21:47:06;20.27;;;6.88;;
16600;SDS011;34891;48.164;11.572;2024-03-07T21:52:15;9.57;;;3.72;;
16600;SDS011;34891;48.164;11.572;2024-03-07T21:57:18;19.55;;;5.75;;
16600;SDS011;34891;48.164;11.572;2024-03-07T22:02:23;17.80;;;6.30;;
16600;SDS011;34891;48.164;11.572;2024-03-07T22:07:25;13.75;;;5.25;;
16600;SDS011;34891;48.164;11.572;2024-03-07T22:12:28;13.80;;;5.57;;
16600;SDS011;34891;48.164;11.572;2024-03-07T22:17:32;14.00;;;5.53;;
16600;SDS011;34891;48.164;11.572;2024-03-07T22:27:37;15.50;;;5.07;;
16600;SDS011;34891;48.164;11.572;2024-03-07T22:32:42;9.10;;;3.80;;
16600;SDS011;34891;48.164;11.572;2024-03-07T22:37:45;19.13;;;5.83;;
16600;SDS011;34891;48.164;11.572;2024-03-07T22:42:53;8.07;;;3.60;;
16600;SDS011;34891;48.164;11.572;2024-03-07T22:47:58;14.17;;;5.70;;
16600;SDS011;34891;48.164;11.572;2024-03-07T22:53:01;14.23;;;5.60;;
16600;SDS011;34891;48.164;11.572;2024-03-07T22:58:04;16.43;;;5.37;;
16600;SDS011;34891;48.164;11.572;2024-03-07T23:03:13;18.20;;;6.30;;
16600;SDS011;34891;48.164;11.572;2024-03-07T23:08:16;16.67;;;4.97;;
16600;SDS011;34891;48.164;11.572;2024-03-07T23:13:19;11.40;;;4.23;;
16600;SDS011;34891;48.164;11.572;2024-03-07T23:18:24;16.55;;;4.95;;
16600;SDS011;34891;48.164;11.572;2024-03-07T23:23:27;12.13;;;4.63;;
16600;SDS011;34891;48.164;11.572;2024-03-07T23:28:31;14.60;;;5.10;;
16600;SDS011;34891;48.164;11.572;2024-03-07T23:33:35;10.98;;;4.53;;
16600;SDS011;34891;48.164;11.572;2024-03-07T23:38:40;14.20;;;4.23;;
16600;SDS011;34891;48.164;11.572;2024-03-07T23:43:43;13.57;;;4.53;;
16600;SDS011;34891;48.164;11.572;2024-03-07T23:48:47;13.13;;;5.90;;
16600;SDS011;34891;48.164;11.572;2024-03-07T23:53:53;9.87;;;5.00;;
16600;SDS011;34891;48.164;11.572;2024-03-07T23:58:57;8.27;;;4.20;;
